createdAt,value
2022-10-14T00:00:51.060Z,101172.88
2022-10-14T00:03:40.656Z,101175.44
2022-10-14T00:06:28.903Z,101171.84
2022-10-14T00:09:15.369Z,101168.31
2022-10-14T00:12:02.091Z,101173.44
2022-10-14T00:14:49.364Z,101172.50
2022-10-14T00:17:37.505Z,101177.66
2022-10-14T00:20:25.234Z,101173.19
2022-10-14T00:23:13.513Z,101179.97
2022-10-14T00:26:00.340Z,101171.22
2022-10-14T00:28:50.823Z,101161.56
2022-10-14T00:31:37.430Z,101164.19
2022-10-14T00:34:24.342Z,101164.28
2022-10-14T00:37:15.246Z,101158.16
2022-10-14T00:40:02.002Z,101159.13
2022-10-14T00:42:50.348Z,101156.56
2022-10-14T00:45:37.070Z,101162.75
2022-10-14T00:48:26.352Z,101154.06
2022-10-14T00:51:15.700Z,101151.47
2022-10-14T00:54:03.736Z,101153.22
2022-10-14T00:56:51.460Z,101150.66
2022-10-14T00:59:42.859Z,101151.56
2022-10-14T01:02:30.719Z,101148.09
2022-10-14T01:05:20.198Z,101152.50
2022-10-14T01:08:10.844Z,101156.94
2022-10-14T01:11:06.838Z,101151.75
2022-10-14T01:14:02.688Z,101163.28
2022-10-14T01:16:58.323Z,101160.63
2022-10-14T01:20:05.558Z,101130.88
2022-10-14T01:23:07.695Z,101157.22
2022-10-14T01:26:03.346Z,101159.88
2022-10-14T01:29:03.217Z,101156.41
2022-10-14T01:32:01.460Z,101158.19
2022-10-14T01:34:54.874Z,101153.75
2022-10-14T01:37:50.093Z,101156.50
2022-10-14T01:40:43.488Z,101156.50
2022-10-14T01:43:33.185Z,101155.72
2022-10-14T01:46:23.279Z,101148.00
2022-10-14T01:49:16.814Z,101156.84
2022-10-14T01:52:08.536Z,101149.91
2022-10-14T01:55:00.097Z,101148.22
2022-10-14T01:57:49.824Z,101150.84
2022-10-14T02:00:36.354Z,101150.88
2022-10-14T02:03:23.246Z,101145.63
2022-10-14T02:06:15.865Z,101126.44
2022-10-14T02:09:12.817Z,101142.09
2022-10-14T02:12:20.526Z,101150.84
2022-10-14T02:15:15.644Z,101143.81
2022-10-14T02:18:07.705Z,101147.31
2022-10-14T02:20:59.152Z,101146.44
2022-10-14T02:23:53.270Z,101146.44
2022-10-14T02:26:44.368Z,101136.75
2022-10-14T02:29:33.088Z,101141.19
2022-10-14T02:32:23.113Z,101142.09
2022-10-14T02:35:13.810Z,101139.47
2022-10-14T02:38:01.021Z,101135.97
2022-10-14T02:40:51.840Z,101135.94
2022-10-14T02:43:39.181Z,101136.78
2022-10-14T02:46:26.079Z,101137.72
2022-10-14T02:49:12.840Z,101129.84
2022-10-14T02:51:59.421Z,101128.97
2022-10-14T02:54:46.239Z,101129.00
2022-10-14T02:57:34.311Z,101125.56
2022-10-14T03:00:22.065Z,101129.13
2022-10-14T03:03:08.966Z,101127.41
2022-10-14T03:05:55.833Z,101127.44
2022-10-14T03:08:43.125Z,101132.72
2022-10-14T03:11:29.883Z,101083.00
2022-10-14T03:14:24.662Z,101125.78
2022-10-14T03:17:11.952Z,101131.06
2022-10-14T03:19:59.752Z,101138.97
2022-10-14T03:22:46.467Z,101135.41
2022-10-14T03:25:33.223Z,101124.91
2022-10-14T03:28:25.463Z,101130.19
2022-10-14T03:31:22.129Z,101129.38
2022-10-14T03:34:41.085Z,101132.94
2022-10-14T03:37:34.807Z,101125.06
2022-10-14T03:40:23.181Z,101125.09
2022-10-14T03:43:10.963Z,101126.88
2022-10-14T03:46:07.338Z,101118.16
2022-10-14T03:48:55.552Z,101116.47
2022-10-14T03:51:42.589Z,101118.28
2022-10-14T03:54:38.122Z,101106.94
2022-10-14T03:57:26.012Z,101119.25
2022-10-14T04:00:16.617Z,101112.28
2022-10-14T04:03:08.656Z,101116.66
2022-10-14T04:06:00.809Z,101112.31
2022-10-14T04:08:49.392Z,101106.19
2022-10-14T04:11:45.817Z,101111.44
2022-10-14T04:14:51.764Z,101100.94
2022-10-14T04:17:38.519Z,101104.44
2022-10-14T04:20:31.000Z,101093.06
2022-10-14T04:23:19.023Z,101094.78
2022-10-14T04:26:10.441Z,101089.44
2022-10-14T04:28:58.395Z,101081.56
2022-10-14T04:31:53.797Z,101092.97
2022-10-14T04:34:40.588Z,101080.72
2022-10-14T04:37:29.264Z,101091.28
2022-10-14T04:40:25.910Z,101087.78
2022-10-14T04:43:13.991Z,101080.75
2022-10-14T04:46:01.588Z,101079.84
2022-10-14T04:48:50.349Z,101077.25
2022-10-14T04:51:37.902Z,101079.88
2022-10-14T04:54:42.995Z,101079.00
2022-10-14T04:57:31.645Z,101078.16
2022-10-14T05:00:18.694Z,101077.28
2022-10-14T05:03:11.647Z,101079.84
2022-10-14T05:05:58.633Z,101072.88
2022-10-14T05:08:46.144Z,101070.28
2022-10-14T05:11:33.842Z,101077.31
2022-10-14T05:14:22.961Z,101080.88
2022-10-14T05:17:20.287Z,101076.50
2022-10-14T05:20:08.185Z,101075.63
2022-10-14T05:22:57.243Z,101074.69
2022-10-14T05:25:44.416Z,101073.81
2022-10-14T05:28:32.213Z,101073.78
2022-10-14T05:31:20.769Z,101073.81
2022-10-14T05:34:18.839Z,101073.00
2022-10-14T05:37:05.581Z,101070.41
2022-10-14T05:40:01.021Z,101069.53
2022-10-14T05:42:49.269Z,101076.56
2022-10-14T05:45:39.464Z,101075.69
2022-10-14T05:48:28.033Z,101080.03
2022-10-14T05:51:15.715Z,101080.03
2022-10-14T05:54:02.797Z,101071.19
2022-10-14T05:56:49.959Z,101073.78
2022-10-14T05:59:36.827Z,101070.22
2022-10-14T06:02:24.171Z,101075.41
2022-10-14T06:05:15.111Z,101076.19
2022-10-14T06:08:01.931Z,101074.34
2022-10-14T06:10:48.731Z,101076.91
2022-10-14T06:13:35.808Z,101070.63
2022-10-14T06:16:22.499Z,101073.97
2022-10-14T06:19:09.395Z,101074.69
2022-10-14T06:21:58.450Z,101073.63
2022-10-14T06:24:45.162Z,101067.31
2022-10-14T06:27:32.061Z,101064.56
2022-10-14T06:30:19.130Z,101063.50
2022-10-14T06:33:05.879Z,101066.91
2022-10-14T06:35:52.387Z,101073.81
2022-10-14T06:38:40.539Z,101071.97
2022-10-14T06:41:27.301Z,101078.00
2022-10-14T06:44:15.662Z,101076.13
2022-10-14T06:47:02.528Z,101085.72
2022-10-14T06:49:49.386Z,101086.47
2022-10-14T06:52:36.202Z,101086.38
2022-10-14T06:55:24.297Z,101084.47
2022-10-14T06:58:11.413Z,101082.56
2022-10-14T07:01:02.852Z,101091.19
2022-10-14T07:03:52.896Z,101085.78
2022-10-14T07:06:42.614Z,101080.41
2022-10-14T07:09:29.448Z,101089.88
2022-10-14T07:12:17.790Z,101081.78
2022-10-14T07:15:05.256Z,101072.81
2022-10-14T07:17:51.999Z,101069.91
2022-10-14T07:20:38.698Z,101090.88
2022-10-14T07:23:25.703Z,101089.88
2022-10-14T07:26:12.604Z,101087.84
2022-10-14T07:29:00.567Z,101080.66
2022-10-14T07:31:47.049Z,101083.13
2022-10-14T07:34:34.399Z,101081.19
2022-10-14T07:37:21.300Z,101089.78
2022-10-14T07:40:09.981Z,101089.56
2022-10-14T07:42:57.452Z,101088.50
2022-10-14T07:45:47.931Z,101092.75
2022-10-14T07:48:45.293Z,101086.44
2022-10-14T07:51:39.974Z,101086.94
2022-10-14T07:54:29.551Z,101090.13
2022-10-14T07:57:16.779Z,101095.09
2022-10-14T08:00:04.225Z,101096.66
2022-10-14T08:02:59.897Z,101095.66
2022-10-14T08:05:47.608Z,101096.28
2022-10-14T08:08:34.480Z,101099.69
2022-10-14T08:11:23.309Z,101100.97
2022-10-14T08:14:09.908Z,101094.47
2022-10-14T08:16:56.404Z,101104.00
2022-10-14T08:19:44.657Z,101095.41
2022-10-14T08:22:31.547Z,101097.84
2022-10-14T08:25:18.347Z,101100.41
2022-10-14T08:28:05.459Z,101091.03
2022-10-14T08:30:53.002Z,101088.75
2022-10-14T08:33:39.569Z,101087.22
2022-10-14T08:36:28.065Z,101067.47
2022-10-14T08:39:18.506Z,101090.31
2022-10-14T08:42:29.554Z,101079.09
2022-10-14T08:45:20.562Z,101083.44
2022-10-14T08:48:15.615Z,101066.56
2022-10-14T08:51:06.241Z,101073.03
2022-10-14T08:54:00.019Z,101084.75
2022-10-14T08:56:46.942Z,101078.00
2022-10-14T08:59:40.296Z,101068.16
2022-10-14T09:02:39.140Z,101066.47
2022-10-14T09:05:27.420Z,101067.78
2022-10-14T09:08:18.394Z,101078.94
2022-10-14T09:11:07.568Z,101074.56
2022-10-14T09:13:58.997Z,101069.00
2022-10-14T09:16:50.483Z,101061.75
2022-10-14T09:19:47.054Z,101065.31
2022-10-14T09:22:33.859Z,101066.06
2022-10-14T09:25:20.709Z,101071.59
2022-10-14T09:28:10.138Z,101068.25
2022-10-14T09:30:56.712Z,101067.59
2022-10-14T09:33:45.664Z,101070.75
2022-10-14T09:36:32.239Z,101062.81
2022-10-14T09:39:19.282Z,101075.19
2022-10-14T09:42:10.357Z,101070.38
2022-10-14T09:45:14.433Z,101063.78
2022-10-14T09:48:07.874Z,101056.22
2022-10-14T09:50:56.879Z,101057.56
2022-10-14T09:53:49.083Z,101055.50
2022-10-14T09:56:41.660Z,101054.59
2022-10-14T09:59:42.498Z,101056.34
2022-10-14T10:02:50.199Z,101037.94
2022-10-14T10:05:47.493Z,101002.59
2022-10-14T10:08:52.975Z,101037.72
2022-10-14T10:12:04.640Z,101038.53
2022-10-14T10:15:07.301Z,101027.88
2022-10-14T10:18:09.852Z,101023.19
2022-10-14T10:21:40.968Z,101028.63
2022-10-14T10:24:52.310Z,101019.69
2022-10-14T10:27:41.672Z,101012.59
2022-10-14T10:30:30.471Z,101007.28
2022-10-14T10:33:29.044Z,101008.84
2022-10-14T10:36:22.205Z,101002.41
2022-10-14T10:39:24.710Z,101001.69
2022-10-14T10:42:22.339Z,100996.66
2022-10-14T10:45:17.193Z,100998.72
2022-10-14T10:48:10.734Z,100997.63
2022-10-14T10:51:08.377Z,100984.59
2022-10-14T10:54:09.455Z,100993.31
2022-10-14T10:57:02.323Z,100982.03
2022-10-14T10:59:59.245Z,100985.69
2022-10-14T11:02:56.798Z,100986.31
2022-10-14T11:05:52.460Z,100979.59
2022-10-14T11:09:17.327Z,100975.97
2022-10-14T11:12:15.946Z,100974.50
2022-10-14T11:15:24.211Z,100976.75
2022-10-14T11:18:20.698Z,100979.31
2022-10-14T11:21:15.043Z,100977.66
2022-10-14T11:24:10.580Z,100977.34
2022-10-14T11:27:13.628Z,100968.16
2022-10-14T11:30:15.688Z,100960.47
2022-10-14T11:33:25.905Z,100965.50
2022-10-14T11:36:23.765Z,100961.53
2022-10-14T11:39:26.002Z,100961.59
2022-10-14T11:42:26.026Z,100955.88
2022-10-14T11:45:41.554Z,100958.41
2022-10-14T11:48:33.691Z,100952.63
2022-10-14T11:51:25.158Z,100953.06
2022-10-14T11:54:18.238Z,100946.69
2022-10-14T11:57:09.638Z,100942.38
2022-10-14T12:00:02.302Z,100938.84
2022-10-14T12:03:08.763Z,100932.34
2022-10-14T12:06:04.416Z,100931.59
2022-10-14T12:08:56.792Z,100929.34
2022-10-14T12:11:51.148Z,100928.91
2022-10-14T12:14:40.951Z,100930.19
2022-10-14T12:17:33.287Z,100926.66
2022-10-14T12:20:33.205Z,100922.69
2022-10-14T12:23:30.658Z,100920.91
2022-10-14T12:26:35.909Z,100917.66
2022-10-14T12:29:27.047Z,100917.38
2022-10-14T12:32:24.245Z,100908.34
2022-10-14T12:35:53.801Z,100919.84
2022-10-14T12:38:40.286Z,100915.22
2022-10-14T12:41:35.212Z,100914.78
2022-10-14T12:44:24.825Z,100921.78
2022-10-14T12:47:21.040Z,100920.22
2022-10-14T12:50:29.343Z,100919.94
2022-10-14T12:53:23.437Z,100914.44
2022-10-14T12:56:11.479Z,100913.25
2022-10-14T12:59:01.988Z,100908.97
2022-10-14T13:01:59.129Z,100904.03
2022-10-14T13:04:49.316Z,100906.13
2022-10-14T13:07:44.095Z,100905.59
2022-10-14T13:11:09.801Z,100902.50
2022-10-14T13:14:01.847Z,100903.94
2022-10-14T13:17:22.622Z,100891.69
2022-10-14T13:20:53.760Z,100889.63
2022-10-14T13:23:44.678Z,100883.06
2022-10-14T13:26:42.455Z,100879.34
2022-10-14T13:29:41.368Z,100878.91
2022-10-14T13:32:36.197Z,100879.81
2022-10-14T13:35:31.200Z,100870.78
2022-10-14T13:38:20.464Z,100871.34
2022-10-14T13:41:18.665Z,100866.47
2022-10-14T13:44:06.951Z,100870.47
2022-10-14T13:46:55.497Z,100852.25
2022-10-14T13:49:44.223Z,100858.53
2022-10-14T13:52:34.597Z,100845.66
2022-10-14T13:55:24.817Z,100845.25
2022-10-14T13:58:15.143Z,100847.84
2022-10-14T14:01:06.860Z,100835.25
2022-10-14T14:03:56.819Z,100836.72
2022-10-14T14:07:03.082Z,100836.13
2022-10-14T14:09:59.381Z,100842.00
2022-10-14T14:12:46.163Z,100842.69
2022-10-14T14:15:32.652Z,100845.63
2022-10-14T14:18:49.314Z,100848.38
2022-10-14T14:21:43.326Z,100853.91
2022-10-14T14:24:34.318Z,100848.28
2022-10-14T14:27:23.614Z,100846.31
2022-10-14T14:30:22.285Z,100840.09
2022-10-14T14:33:13.321Z,100844.41
2022-10-14T14:36:04.289Z,100841.31
2022-10-14T14:38:55.905Z,100843.72
2022-10-14T14:41:51.282Z,100846.13
2022-10-14T14:44:38.013Z,100843.91
2022-10-14T14:47:27.250Z,100847.84
2022-10-14T14:50:32.089Z,100840.19
2022-10-14T14:53:22.344Z,100837.00
2022-10-14T14:56:14.735Z,100834.06
2022-10-14T14:59:08.740Z,100834.56
2022-10-14T15:01:56.926Z,100832.88
2022-10-14T15:04:45.857Z,100823.16
2022-10-14T15:07:33.545Z,100830.13
2022-10-14T15:10:24.228Z,100829.22
2022-10-14T15:13:28.196Z,100822.97
2022-10-14T15:16:14.778Z,100825.72
2022-10-14T15:19:34.103Z,100817.31
2022-10-14T15:22:33.899Z,100812.47
2022-10-14T15:25:29.069Z,100808.13
2022-10-14T15:28:30.574Z,100812.31
2022-10-14T15:31:19.348Z,100807.16
2022-10-14T15:34:06.902Z,100809.00
2022-10-14T15:36:54.269Z,100798.72
2022-10-14T15:39:40.670Z,100796.44
2022-10-14T15:42:28.857Z,100803.19
2022-10-14T15:45:16.433Z,100787.72
2022-10-14T15:48:06.102Z,100791.94
2022-10-14T15:50:52.934Z,100793.94
2022-10-14T15:53:39.604Z,100794.72
2022-10-14T15:56:26.641Z,100794.50
2022-10-14T15:59:16.264Z,100787.88
2022-10-14T16:02:05.269Z,100793.75
2022-10-14T16:05:20.978Z,100785.69
2022-10-14T16:07:59.114Z,100774.94
2022-10-14T16:10:47.353Z,100765.06
2022-10-14T16:13:34.911Z,100786.28
2022-10-14T16:16:28.752Z,100780.44
2022-10-14T16:19:15.323Z,100786.13
2022-10-14T16:22:04.518Z,100785.13
2022-10-14T16:24:52.115Z,100782.53
2022-10-14T16:27:38.959Z,100775.00
2022-10-14T16:30:28.195Z,100776.50
2022-10-14T16:33:17.235Z,100782.38
2022-10-14T16:36:07.074Z,100776.72
2022-10-14T16:38:53.901Z,100781.75
2022-10-14T16:41:40.645Z,100786.38
2022-10-14T16:44:27.696Z,100784.41
2022-10-14T16:47:20.796Z,100789.59
2022-10-14T16:50:10.773Z,100792.84
2022-10-14T16:53:14.954Z,100790.47
2022-10-14T16:56:01.972Z,100783.56
2022-10-14T16:58:48.371Z,100785.53
2022-10-14T17:01:35.288Z,100779.41
2022-10-14T17:04:22.404Z,100778.47
2022-10-14T17:07:17.536Z,100783.84
2022-10-14T17:10:04.991Z,100783.00
2022-10-14T17:12:51.441Z,100782.88
2022-10-14T17:15:38.175Z,100778.47
2022-10-14T17:18:25.857Z,100784.66
2022-10-14T17:21:13.762Z,100759.56
2022-10-14T17:24:02.983Z,100778.84
2022-10-14T17:26:49.878Z,100778.91
2022-10-14T17:29:36.487Z,100772.72
2022-10-14T17:32:23.544Z,100769.09
2022-10-14T17:35:14.421Z,100772.59
2022-10-14T17:38:02.107Z,100764.88
2022-10-14T17:40:50.329Z,100779.88
2022-10-14T17:43:37.847Z,100775.50
2022-10-14T17:46:27.240Z,100773.75
2022-10-14T17:49:15.232Z,100771.09
2022-10-14T17:52:02.404Z,100772.78
2022-10-14T17:54:48.844Z,100771.91
2022-10-14T17:57:37.398Z,100767.47
2022-10-14T18:00:24.251Z,100756.09
2022-10-14T18:03:10.891Z,100757.97
2022-10-14T18:05:57.516Z,100754.53
2022-10-14T18:08:45.936Z,100732.88
2022-10-14T18:11:56.169Z,100757.97
2022-10-14T18:14:43.411Z,100747.59
2022-10-14T18:17:30.126Z,100750.53
2022-10-14T18:20:17.014Z,100744.59
2022-10-14T18:23:03.944Z,100746.59
2022-10-14T18:25:50.639Z,100743.03
2022-10-14T18:28:40.462Z,100741.47
2022-10-14T18:31:30.608Z,100717.31
2022-10-14T18:34:17.670Z,100739.97
2022-10-14T18:37:04.341Z,100742.00
2022-10-14T18:39:51.133Z,100737.78
2022-10-14T18:42:37.889Z,100734.31
2022-10-14T18:45:24.816Z,100736.25
2022-10-14T18:48:13.549Z,100725.59
2022-10-14T18:51:00.757Z,100721.22
2022-10-14T18:53:49.623Z,100711.53
2022-10-14T18:56:38.780Z,100709.28
2022-10-14T18:59:25.969Z,100711.09
2022-10-14T19:02:14.107Z,100704.03
2022-10-14T19:05:02.339Z,100708.75
2022-10-14T19:07:50.014Z,100708.06
2022-10-14T19:10:36.845Z,100705.94
2022-10-14T19:13:23.320Z,100712.53
2022-10-14T19:16:15.687Z,100697.22
2022-10-14T19:19:07.960Z,100704.75
2022-10-14T19:21:59.627Z,100709.81
2022-10-14T19:24:46.137Z,100711.56
2022-10-14T19:27:32.853Z,100707.16
2022-10-14T19:30:19.642Z,100701.16
2022-10-14T19:33:06.529Z,100711.03
2022-10-14T19:36:01.057Z,100703.41
2022-10-14T19:38:52.187Z,100700.22
2022-10-14T19:41:43.211Z,100692.47
2022-10-14T19:44:29.995Z,100692.66
2022-10-14T19:47:16.827Z,100688.38
2022-10-14T19:50:03.590Z,100677.94
2022-10-14T19:52:51.180Z,100680.69
2022-10-14T19:55:39.497Z,100666.47
2022-10-14T19:58:29.310Z,100667.41
2022-10-14T20:01:28.843Z,100665.59
2022-10-14T20:04:15.568Z,100661.88
2022-10-14T20:07:02.225Z,100659.00
2022-10-14T20:09:49.060Z,100656.41
2022-10-14T20:12:37.316Z,100654.44
2022-10-14T20:15:23.903Z,100650.06
2022-10-14T20:18:10.779Z,100642.09
2022-10-14T20:20:58.202Z,100642.22
2022-10-14T20:23:45.922Z,100647.41
2022-10-14T20:26:32.989Z,100644.75
2022-10-14T20:29:21.125Z,100646.19
2022-10-14T20:32:08.162Z,100645.22
2022-10-14T20:34:54.644Z,100642.34
2022-10-14T20:37:41.613Z,100632.31
2022-10-14T20:40:28.521Z,100637.56
2022-10-14T20:43:14.988Z,100631.94
2022-10-14T20:46:03.305Z,100628.97
2022-10-14T20:48:54.732Z,100620.78
2022-10-14T20:51:42.288Z,100636.59
2022-10-14T20:54:30.882Z,100627.56
2022-10-14T20:57:19.534Z,100632.53
2022-10-14T21:00:08.146Z,100634.13
2022-10-14T21:02:56.625Z,100631.31
2022-10-14T21:05:43.127Z,100628.09
2022-10-14T21:08:46.599Z,100620.31
2022-10-14T21:11:35.253Z,100617.47
2022-10-14T21:14:22.556Z,100609.03
2022-10-14T21:17:09.604Z,100592.97
2022-10-14T21:19:58.491Z,100589.88
2022-10-14T21:22:45.296Z,100581.69
2022-10-14T21:25:32.169Z,100572.00
2022-10-14T21:28:20.935Z,100572.19
2022-10-14T21:31:10.080Z,100557.63
2022-10-14T21:34:02.574Z,100560.50
2022-10-14T21:36:53.100Z,100551.72
2022-10-14T21:39:41.464Z,100547.88
2022-10-14T21:42:28.570Z,100541.56
2022-10-14T21:45:15.361Z,100553.19
2022-10-14T21:48:02.314Z,100551.59
2022-10-14T21:50:49.870Z,100548.13
2022-10-14T21:53:38.448Z,100558.50
2022-10-14T21:56:25.738Z,100564.88
2022-10-14T21:59:13.197Z,100560.63
2022-10-14T22:01:59.971Z,100552.53
2022-10-14T22:04:47.673Z,100546.94
2022-10-14T22:07:34.809Z,100540.91
2022-10-14T22:10:39.831Z,100544.56
2022-10-14T22:13:27.508Z,100538.25
2022-10-14T22:16:16.893Z,100530.59
2022-10-14T22:19:05.071Z,100524.94
2022-10-14T22:21:51.606Z,100518.13
2022-10-14T22:24:41.222Z,100516.47
2022-10-14T22:27:29.801Z,100507.63
2022-10-14T22:30:17.091Z,100515.06
2022-10-14T22:33:04.132Z,100499.31
2022-10-14T22:35:51.163Z,100501.91
2022-10-14T22:38:38.056Z,100500.38
2022-10-14T22:41:25.742Z,100503.56
2022-10-14T22:44:13.747Z,100509.16
2022-10-14T22:47:00.378Z,100496.59
2022-10-14T22:49:47.365Z,100491.16
2022-10-14T22:52:34.552Z,100487.44
2022-10-14T22:55:27.286Z,100491.94
2022-10-14T22:58:24.480Z,100487.50
2022-10-14T23:01:18.761Z,100473.56
2022-10-14T23:04:10.353Z,100466.66
2022-10-14T23:07:04.419Z,100467.78
2022-10-14T23:09:58.398Z,100472.31
2022-10-14T23:12:52.029Z,100465.66
2022-10-14T23:15:40.077Z,100463.00
2022-10-14T23:18:29.493Z,100455.97
2022-10-14T23:21:18.305Z,100452.25
2022-10-14T23:24:08.369Z,100452.13
2022-10-14T23:26:55.227Z,100447.88
2022-10-14T23:29:44.461Z,100449.41
2022-10-14T23:32:31.972Z,100459.16
2022-10-14T23:35:20.263Z,100453.97
2022-10-14T23:38:10.211Z,100444.22
2022-10-14T23:41:04.164Z,100455.97
2022-10-14T23:43:55.957Z,100456.84
2022-10-14T23:46:50.087Z,100445.63
2022-10-14T23:49:46.956Z,100453.84
2022-10-14T23:52:37.191Z,100451.72
2022-10-14T23:55:26.784Z,100453.25
2022-10-14T23:58:19.482Z,100448.81
